createdAt,value
2022-09-06T00:00:57.115Z,19.09
2022-09-06T00:03:24.264Z,19.09
2022-09-06T00:05:51.022Z,19.06
2022-09-06T00:08:17.557Z,19.07
2022-09-06T00:10:44.098Z,19.05
2022-09-06T00:13:11.799Z,19.05
2022-09-06T00:15:38.584Z,19.01
2022-09-06T00:18:07.621Z,19.01
2022-09-06T00:20:37.774Z,19.00
2022-09-06T00:23:06.660Z,18.98
2022-09-06T00:25:33.612Z,18.97
2022-09-06T00:28:05.342Z,18.95
2022-09-06T00:30:33.443Z,18.92
2022-09-06T00:33:00.383Z,18.90
2022-09-06T00:35:28.957Z,18.89
2022-09-06T00:38:00.616Z,18.84
2022-09-06T00:40:29.922Z,18.80
2022-09-06T00:42:57.787Z,18.77
2022-09-06T00:45:27.398Z,18.73
2022-09-06T00:47:54.780Z,18.70
2022-09-06T00:50:21.824Z,18.65
2022-09-06T00:52:52.060Z,18.61
2022-09-06T00:55:20.220Z,18.55
2022-09-06T00:57:46.962Z,18.40
2022-09-06T01:00:14.037Z,18.44
2022-09-06T01:02:40.868Z,18.41
2022-09-06T01:05:07.949Z,18.37
2022-09-06T01:07:58.715Z,18.32
2022-09-06T01:11:02.938Z,18.26
2022-09-06T01:13:50.822Z,18.23
2022-09-06T01:16:17.392Z,18.11
2022-09-06T01:19:04.712Z,18.18
2022-09-06T01:22:12.911Z,18.16
2022-09-06T01:25:10.367Z,18.13
2022-09-06T01:28:04.675Z,18.10
2022-09-06T01:30:34.703Z,18.10
2022-09-06T01:33:16.691Z,18.07
2022-09-06T01:35:51.870Z,18.07
2022-09-06T01:38:19.232Z,18.05
2022-09-06T01:40:45.801Z,18.04
2022-09-06T01:43:18.272Z,18.03
2022-09-06T01:46:00.945Z,17.99
2022-09-06T01:48:45.310Z,17.97
2022-09-06T01:51:27.609Z,17.95
2022-09-06T01:54:21.576Z,17.93
2022-09-06T01:56:56.786Z,17.91
2022-09-06T01:59:35.167Z,17.90
2022-09-06T02:02:10.789Z,17.89
2022-09-06T02:04:46.972Z,17.86
2022-09-06T02:07:25.081Z,17.84
2022-09-06T02:09:58.188Z,17.73
2022-09-06T02:12:28.078Z,17.81
2022-09-06T02:15:20.282Z,17.82
2022-09-06T02:17:53.273Z,17.80
2022-09-06T02:20:24.789Z,17.79
2022-09-06T02:22:53.315Z,17.78
2022-09-06T02:25:32.748Z,17.77
2022-09-06T02:27:59.509Z,17.76
2022-09-06T02:30:26.201Z,17.74
2022-09-06T02:33:05.276Z,17.75
2022-09-06T02:35:32.326Z,17.74
2022-09-06T02:37:59.174Z,17.73
2022-09-06T02:40:26.018Z,17.72
2022-09-06T02:42:52.542Z,17.71
2022-09-06T02:45:19.182Z,17.71
2022-09-06T02:47:45.792Z,17.71
2022-09-06T02:50:12.315Z,17.70
2022-09-06T02:52:38.913Z,17.69
2022-09-06T02:55:06.154Z,17.68
2022-09-06T02:57:32.721Z,17.67
2022-09-06T02:59:59.308Z,17.65
2022-09-06T03:02:25.876Z,17.64
2022-09-06T03:04:52.500Z,17.62
2022-09-06T03:07:19.077Z,17.60
2022-09-06T03:09:45.837Z,17.59
2022-09-06T03:12:12.544Z,17.56
2022-09-06T03:14:39.150Z,17.55
2022-09-06T03:17:05.690Z,17.55
2022-09-06T03:19:32.266Z,17.53
2022-09-06T03:21:58.843Z,17.55
2022-09-06T03:24:25.367Z,17.53
2022-09-06T03:26:51.918Z,17.53
2022-09-06T03:29:18.499Z,17.52
2022-09-06T03:31:45.051Z,17.51
2022-09-06T03:34:11.645Z,17.50
2022-09-06T03:36:38.254Z,17.50
2022-09-06T03:39:04.807Z,17.48
2022-09-06T03:41:31.414Z,17.47
2022-09-06T03:43:57.936Z,17.47
2022-09-06T03:46:24.557Z,17.45
2022-09-06T03:48:51.256Z,17.44
2022-09-06T03:51:17.820Z,17.44
2022-09-06T03:53:44.362Z,17.43
2022-09-06T03:56:11.082Z,17.40
2022-09-06T03:58:37.679Z,17.40
2022-09-06T04:01:07.568Z,17.40
2022-09-06T04:03:35.155Z,17.37
2022-09-06T04:06:02.251Z,17.36
2022-09-06T04:08:29.212Z,17.35
2022-09-06T04:10:57.112Z,17.34
2022-09-06T04:13:24.560Z,17.32
2022-09-06T04:15:51.988Z,17.31
2022-09-06T04:18:19.477Z,17.29
2022-09-06T04:20:49.266Z,17.27
2022-09-06T04:23:16.513Z,17.26
2022-09-06T04:25:50.980Z,17.23
2022-09-06T04:28:18.444Z,17.24
2022-09-06T04:31:04.553Z,17.21
2022-09-06T04:33:33.737Z,17.20
2022-09-06T04:36:01.686Z,17.22
2022-09-06T04:38:30.151Z,17.22
2022-09-06T04:40:56.715Z,17.22
2022-09-06T04:43:23.945Z,17.23
2022-09-06T04:45:50.587Z,17.23
2022-09-06T04:48:17.252Z,17.25
2022-09-06T04:50:43.934Z,17.27
2022-09-06T04:53:10.505Z,17.29
2022-09-06T04:55:37.699Z,17.31
2022-09-06T04:58:04.887Z,17.33
2022-09-06T05:00:33.531Z,17.34
2022-09-06T05:03:00.511Z,17.37
2022-09-06T05:05:27.118Z,17.39
2022-09-06T05:07:55.019Z,17.43
2022-09-06T05:10:23.141Z,17.45
2022-09-06T05:12:49.897Z,17.38
2022-09-06T05:15:17.795Z,17.51
2022-09-06T05:17:44.424Z,17.56
2022-09-06T05:20:12.213Z,17.61
2022-09-06T05:22:39.849Z,17.65
2022-09-06T05:25:07.820Z,17.69
2022-09-06T05:27:34.485Z,17.65
2022-09-06T05:30:01.058Z,17.78
2022-09-06T05:32:27.625Z,17.85
2022-09-06T05:34:54.219Z,17.90
2022-09-06T05:37:20.815Z,17.94
2022-09-06T05:39:47.458Z,18.00
2022-09-06T05:42:19.011Z,18.06
2022-09-06T05:44:45.940Z,18.12
2022-09-06T05:47:12.576Z,18.20
2022-09-06T05:49:39.163Z,18.25
2022-09-06T05:52:05.800Z,18.31
2022-09-06T05:54:32.305Z,18.38
2022-09-06T05:56:58.815Z,18.44
2022-09-06T05:59:25.448Z,18.49
2022-09-06T06:01:53.525Z,18.58
2022-09-06T06:04:20.378Z,18.57
2022-09-06T06:06:47.236Z,18.77
2022-09-06T06:09:13.962Z,18.92
2022-09-06T06:11:41.249Z,19.06
2022-09-06T06:14:08.616Z,19.17
2022-09-06T06:16:35.613Z,19.34
2022-09-06T06:19:02.307Z,19.46
2022-09-06T06:21:30.789Z,19.63
2022-09-06T06:24:00.493Z,19.75
2022-09-06T06:26:29.532Z,19.86
2022-09-06T06:28:56.227Z,19.97
2022-09-06T06:31:22.940Z,20.04
2022-09-06T06:33:50.240Z,20.09
2022-09-06T06:36:16.801Z,20.14
2022-09-06T06:38:45.574Z,20.21
2022-09-06T06:41:14.686Z,20.26
2022-09-06T06:43:41.519Z,20.33
2022-09-06T06:46:11.275Z,20.41
2022-09-06T06:48:39.072Z,20.49
2022-09-06T06:51:05.836Z,20.59
2022-09-06T06:53:32.474Z,20.69
2022-09-06T06:55:59.666Z,20.79
2022-09-06T06:58:26.366Z,20.88
2022-09-06T07:00:53.136Z,20.98
2022-09-06T07:03:19.717Z,21.06
2022-09-06T07:08:33.326Z,21.20
2022-09-06T07:11:00.002Z,21.26
2022-09-06T07:13:26.504Z,21.32
2022-09-06T07:16:06.986Z,21.38
2022-09-06T07:18:33.587Z,21.45
2022-09-06T07:26:34.651Z,21.62
2022-09-06T07:29:02.786Z,21.67
2022-09-06T07:34:18.971Z,21.81
2022-09-06T07:36:45.878Z,21.86
2022-09-06T07:39:12.688Z,21.95
2022-09-06T07:41:39.543Z,22.06
2022-09-06T07:44:06.261Z,22.17
2022-09-06T07:46:33.306Z,22.28
2022-09-06T07:49:00.240Z,22.41
2022-09-06T07:51:27.012Z,22.52
2022-09-06T07:54:07.425Z,22.64
2022-09-06T07:56:41.784Z,22.73
2022-09-06T07:59:08.634Z,22.87
2022-09-06T08:01:38.050Z,22.95
2022-09-06T08:04:11.851Z,23.04
2022-09-06T08:09:32.669Z,23.18
2022-09-06T08:11:59.495Z,23.25
2022-09-06T08:14:26.497Z,23.28
2022-09-06T08:16:53.440Z,23.26
2022-09-06T08:19:20.118Z,23.26
2022-09-06T08:21:46.932Z,23.23
2022-09-06T08:24:13.673Z,23.19
2022-09-06T08:26:40.688Z,23.14
2022-09-06T08:29:09.422Z,23.11
2022-09-06T08:31:39.193Z,23.09
2022-09-06T08:34:06.370Z,23.10
2022-09-06T08:36:33.866Z,23.12
2022-09-06T08:39:06.427Z,23.14
2022-09-06T08:41:37.995Z,23.25
2022-09-06T08:47:22.017Z,23.43
2022-09-06T08:49:57.137Z,23.54
2022-09-06T08:55:52.720Z,23.84
2022-09-06T08:58:32.323Z,23.97
2022-09-06T09:01:05.936Z,24.12
2022-09-06T09:03:35.749Z,24.28
2022-09-06T09:06:04.655Z,24.42
2022-09-06T09:08:41.471Z,24.59
2022-09-06T09:11:14.408Z,24.73
2022-09-06T09:13:57.822Z,24.87
2022-09-06T09:16:24.941Z,24.99
2022-09-06T09:18:58.593Z,25.10
2022-09-06T09:21:30.662Z,25.26
2022-09-06T09:24:02.395Z,25.39
2022-09-06T09:26:52.188Z,25.52
2022-09-06T09:29:21.703Z,25.66
2022-09-06T09:31:54.586Z,25.75
2022-09-06T09:34:34.381Z,25.89
2022-09-06T09:40:04.961Z,26.14
2022-09-06T09:42:36.132Z,26.17
2022-09-06T09:45:27.991Z,26.20
2022-09-06T09:47:55.254Z,26.17
2022-09-06T09:50:33.647Z,26.15
2022-09-06T09:53:14.815Z,26.08
2022-09-06T09:55:42.690Z,26.04
2022-09-06T09:58:18.282Z,25.89
2022-09-06T10:00:44.974Z,25.96
2022-09-06T10:03:29.518Z,25.92
2022-09-06T10:06:02.521Z,25.95
2022-09-06T10:08:33.664Z,25.98
2022-09-06T10:11:00.257Z,25.99
2022-09-06T10:13:29.092Z,26.00
2022-09-06T10:15:57.369Z,26.04
2022-09-06T10:18:41.970Z,26.09
2022-09-06T10:21:11.590Z,26.15
2022-09-06T10:26:43.046Z,26.18
2022-09-06T10:29:09.871Z,26.21
2022-09-06T10:31:47.805Z,26.21
2022-09-06T10:34:19.411Z,26.22
2022-09-06T10:37:11.880Z,26.26
2022-09-06T10:39:49.582Z,26.27
2022-09-06T10:42:29.351Z,26.33
2022-09-06T10:45:20.951Z,26.40
2022-09-06T10:47:55.020Z,26.50
2022-09-06T10:50:30.721Z,26.60
2022-09-06T10:53:04.441Z,26.70
2022-09-06T10:55:31.518Z,26.81
2022-09-06T10:58:19.840Z,26.88
2022-09-06T11:00:48.178Z,26.98
2022-09-06T11:04:00.035Z,27.06
2022-09-06T11:06:32.797Z,27.18
2022-09-06T11:09:08.451Z,27.26
2022-09-06T11:11:50.961Z,27.33
2022-09-06T11:14:21.559Z,27.40
2022-09-06T11:16:58.516Z,27.46
2022-09-06T11:19:33.702Z,27.51
2022-09-06T11:22:11.506Z,27.58
2022-09-06T11:24:56.231Z,27.53
2022-09-06T11:27:31.851Z,27.69
2022-09-06T11:30:01.719Z,27.78
2022-09-06T11:32:39.949Z,27.84
2022-09-06T11:35:09.792Z,27.92
2022-09-06T11:37:38.199Z,27.97
2022-09-06T11:40:29.225Z,28.01
2022-09-06T11:42:55.983Z,28.10
2022-09-06T11:45:42.948Z,28.17
2022-09-06T11:48:31.150Z,28.26
2022-09-06T11:50:57.709Z,28.37
2022-09-06T11:53:27.921Z,28.49
2022-09-06T11:56:00.539Z,28.58
2022-09-06T11:58:32.988Z,28.70
2022-09-06T12:01:14.694Z,28.79
2022-09-06T12:04:09.701Z,28.90
2022-09-06T12:07:03.204Z,29.01
2022-09-06T12:09:35.319Z,29.09
2022-09-06T12:12:02.866Z,29.22
2022-09-06T12:14:37.394Z,29.33
2022-09-06T12:17:18.575Z,29.49
2022-09-06T12:19:49.778Z,29.63
2022-09-06T12:22:28.050Z,29.74
2022-09-06T12:24:59.330Z,29.83
2022-09-06T12:27:29.551Z,29.90
2022-09-06T12:29:59.870Z,29.93
2022-09-06T12:32:48.533Z,29.89
2022-09-06T12:38:15.474Z,29.89
2022-09-06T12:40:47.503Z,29.87
2022-09-06T12:43:16.496Z,29.84
2022-09-06T12:45:44.791Z,29.81
2022-09-06T12:48:33.192Z,29.80
2022-09-06T12:51:08.604Z,29.76
2022-09-06T12:53:35.644Z,29.75
2022-09-06T12:56:03.855Z,29.76
2022-09-06T12:58:30.348Z,29.78
2022-09-06T13:01:04.054Z,29.79
2022-09-06T13:03:37.314Z,29.84
2022-09-06T13:06:06.192Z,29.86
2022-09-06T13:08:46.547Z,29.88
2022-09-06T13:11:17.166Z,29.94
2022-09-06T13:13:52.952Z,29.98
2022-09-06T13:16:25.365Z,30.04
2022-09-06T13:18:53.070Z,30.11
2022-09-06T13:21:46.796Z,30.14
2022-09-06T13:24:48.781Z,30.15
2022-09-06T13:27:34.234Z,30.24
2022-09-06T13:30:08.260Z,30.31
2022-09-06T13:32:36.620Z,30.43
2022-09-06T13:35:04.129Z,30.53
2022-09-06T13:37:33.027Z,30.61
2022-09-06T13:40:00.101Z,30.74
2022-09-06T13:42:26.636Z,30.79
2022-09-06T13:44:53.542Z,30.78
2022-09-06T13:47:20.113Z,30.77
2022-09-06T13:49:46.694Z,30.77
2022-09-06T13:52:14.379Z,30.77
2022-09-06T13:54:40.956Z,30.65
2022-09-06T13:57:07.621Z,30.78
2022-09-06T13:59:34.161Z,30.83
2022-09-06T14:02:09.968Z,30.89
2022-09-06T14:04:36.870Z,30.98
2022-09-06T14:07:04.561Z,31.11
2022-09-06T14:09:31.072Z,31.06
2022-09-06T14:12:34.960Z,31.20
2022-09-06T14:15:01.592Z,31.28
2022-09-06T14:17:28.191Z,31.33
2022-09-06T14:19:54.833Z,31.34
2022-09-06T14:22:21.426Z,31.30
2022-09-06T14:24:47.966Z,31.29
2022-09-06T14:27:14.701Z,31.31
2022-09-06T14:29:41.212Z,31.34
2022-09-06T14:32:07.708Z,31.39
2022-09-06T14:34:34.261Z,31.46
2022-09-06T14:37:00.772Z,31.56
2022-09-06T14:39:27.415Z,31.69
2022-09-06T14:41:54.131Z,31.87
2022-09-06T14:44:20.896Z,31.96
2022-09-06T14:46:47.571Z,32.08
2022-09-06T14:49:14.178Z,32.07
2022-09-06T14:51:40.763Z,32.03
2022-09-06T14:54:12.573Z,31.90
2022-09-06T14:56:40.912Z,31.72
2022-09-06T14:59:08.375Z,31.50
2022-09-06T15:01:38.315Z,31.27
2022-09-06T15:04:07.198Z,31.02
2022-09-06T15:06:34.826Z,30.84
2022-09-06T15:09:01.430Z,30.65
2022-09-06T15:11:40.780Z,30.46
2022-09-06T15:14:14.575Z,30.32
2022-09-06T15:16:41.211Z,30.22
2022-09-06T15:19:07.879Z,30.12
2022-09-06T15:21:34.931Z,30.09
2022-09-06T15:24:01.949Z,30.09
2022-09-06T15:26:29.728Z,30.10
2022-09-06T15:28:56.250Z,30.01
2022-09-06T15:31:22.969Z,30.20
2022-09-06T15:33:50.807Z,30.33
2022-09-06T15:36:17.446Z,30.31
2022-09-06T15:38:46.341Z,30.55
2022-09-06T15:41:15.134Z,30.63
2022-09-06T15:43:44.632Z,30.67
2022-09-06T15:46:11.319Z,30.70
2022-09-06T15:48:48.953Z,30.76
2022-09-06T15:51:17.306Z,30.73
2022-09-06T15:53:44.346Z,30.93
2022-09-06T15:56:14.850Z,30.99
2022-09-06T15:58:41.859Z,31.02
2022-09-06T16:01:16.857Z,31.01
2022-09-06T16:03:46.530Z,30.99
2022-09-06T16:06:31.150Z,30.93
2022-09-06T16:09:09.697Z,30.87
2022-09-06T16:11:36.904Z,30.75
2022-09-06T16:14:05.488Z,30.61
2022-09-06T16:16:32.387Z,30.49
2022-09-06T16:18:59.077Z,30.33
2022-09-06T16:21:29.872Z,30.21
2022-09-06T16:24:05.357Z,30.11
2022-09-06T16:26:34.778Z,30.01
2022-09-06T16:29:03.171Z,29.92
2022-09-06T16:31:30.396Z,29.84
2022-09-06T16:33:58.112Z,29.79
2022-09-06T16:36:25.683Z,29.72
2022-09-06T16:38:52.452Z,29.66
2022-09-06T16:41:22.885Z,29.61
2022-09-06T16:43:49.560Z,29.52
2022-09-06T16:46:17.349Z,29.44
2022-09-06T16:48:43.936Z,29.23
2022-09-06T16:51:16.197Z,29.24
2022-09-06T16:53:45.439Z,29.23
2022-09-06T16:56:14.685Z,29.22
2022-09-06T16:58:41.977Z,29.22
2022-09-06T17:01:09.726Z,29.17
2022-09-06T17:03:37.512Z,29.13
2022-09-06T17:06:04.396Z,28.97
2022-09-06T17:08:32.334Z,28.99
2022-09-06T17:11:03.317Z,28.93
2022-09-06T17:13:30.601Z,28.88
2022-09-06T17:15:57.685Z,28.86
2022-09-06T17:18:24.610Z,28.87
2022-09-06T17:20:58.727Z,28.87
2022-09-06T17:23:25.446Z,28.86
2022-09-06T17:25:52.188Z,28.82
2022-09-06T17:28:19.824Z,28.75
2022-09-06T17:30:46.482Z,28.61
2022-09-06T17:33:13.628Z,28.48
2022-09-06T17:35:40.424Z,28.32
2022-09-06T17:38:07.106Z,28.18
2022-09-06T17:40:34.225Z,28.01
2022-09-06T17:43:00.992Z,27.86
2022-09-06T17:45:28.144Z,27.67
2022-09-06T17:47:54.712Z,27.49
2022-09-06T17:50:21.417Z,27.32
2022-09-06T17:52:50.939Z,27.15
2022-09-06T17:55:17.598Z,26.99
2022-09-06T17:57:44.191Z,26.84
2022-09-06T18:00:11.503Z,26.69
2022-09-06T18:02:38.089Z,26.52
2022-09-06T18:05:04.838Z,26.35
2022-09-06T18:07:31.554Z,26.16
2022-09-06T18:09:58.263Z,25.96
2022-09-06T18:12:24.973Z,25.75
2022-09-06T18:14:52.000Z,25.55
2022-09-06T18:17:18.545Z,25.34
2022-09-06T18:19:45.176Z,25.17
2022-09-06T18:22:11.963Z,24.99
2022-09-06T18:24:38.601Z,24.83
2022-09-06T18:27:05.205Z,24.68
2022-09-06T18:29:31.981Z,24.55
2022-09-06T18:31:58.795Z,24.43
2022-09-06T18:34:25.389Z,24.36
2022-09-06T18:36:52.130Z,24.27
2022-09-06T18:39:18.861Z,24.20
2022-09-06T18:41:45.623Z,24.15
2022-09-06T18:44:12.297Z,24.09
2022-09-06T18:46:39.177Z,24.04
2022-09-06T18:49:06.124Z,24.00
2022-09-06T18:51:33.186Z,23.95
2022-09-06T18:54:00.314Z,23.92
2022-09-06T18:56:27.144Z,23.88
2022-09-06T18:58:58.067Z,23.86
2022-09-06T19:01:26.256Z,23.80
2022-09-06T19:03:52.943Z,23.74
2022-09-06T19:06:21.366Z,23.68
2022-09-06T19:08:49.036Z,23.61
2022-09-06T19:11:18.262Z,23.53
2022-09-06T19:13:46.950Z,23.48
2022-09-06T19:16:14.443Z,23.40
2022-09-06T19:18:42.075Z,23.32
2022-09-06T19:21:14.256Z,23.24
2022-09-06T19:23:42.727Z,23.17
2022-09-06T19:26:12.712Z,23.10
2022-09-06T19:28:40.128Z,23.03
2022-09-06T19:31:13.466Z,22.96
2022-09-06T19:33:41.668Z,22.91
2022-09-06T19:36:12.050Z,22.75
2022-09-06T19:39:01.521Z,22.77
2022-09-06T19:41:26.939Z,22.63
2022-09-06T19:43:55.487Z,22.67
2022-09-06T19:46:22.995Z,22.64
2022-09-06T19:48:51.641Z,22.60
2022-09-06T19:51:19.632Z,22.53
2022-09-06T19:53:51.942Z,22.45
2022-09-06T19:56:21.379Z,22.40
2022-09-06T19:58:53.535Z,22.33
2022-09-06T20:01:20.238Z,22.28
2022-09-06T20:03:46.974Z,22.22
2022-09-06T20:06:13.807Z,22.17
2022-09-06T20:08:40.533Z,22.10
2022-09-06T20:11:08.732Z,22.06
2022-09-06T20:13:37.117Z,22.02
2022-09-06T20:16:05.228Z,21.98
2022-09-06T20:18:32.248Z,21.95
2022-09-06T20:20:58.893Z,21.92
2022-09-06T20:23:27.141Z,21.89
2022-09-06T20:26:08.075Z,21.83
2022-09-06T20:28:35.255Z,21.82
2022-09-06T20:31:05.009Z,21.77
2022-09-06T20:33:32.906Z,21.74
2022-09-06T20:36:01.209Z,21.68
2022-09-06T20:38:27.847Z,21.64
2022-09-06T20:41:07.429Z,21.62
2022-09-06T20:43:35.903Z,21.58
2022-09-06T20:46:04.692Z,21.54
2022-09-06T20:48:32.131Z,21.53
2022-09-06T20:51:04.175Z,21.47
2022-09-06T20:53:31.275Z,21.44
2022-09-06T20:56:06.530Z,21.39
2022-09-06T20:58:33.424Z,21.38
2022-09-06T21:01:05.140Z,21.34
2022-09-06T21:03:31.747Z,21.32
2022-09-06T21:05:58.458Z,21.29
2022-09-06T21:08:25.588Z,21.26
2022-09-06T21:10:59.395Z,21.24
2022-09-06T21:13:26.094Z,21.23
2022-09-06T21:15:52.729Z,21.21
2022-09-06T21:18:19.301Z,21.16
2022-09-06T21:20:55.837Z,21.13
2022-09-06T21:23:24.187Z,21.11
2022-09-06T21:25:59.307Z,21.09
2022-09-06T21:28:35.082Z,21.07
2022-09-06T21:31:05.925Z,21.04
2022-09-06T21:33:33.170Z,21.02
2022-09-06T21:36:30.468Z,20.96
2022-09-06T21:39:02.366Z,20.96
2022-09-06T21:41:31.643Z,20.95
2022-09-06T21:44:00.810Z,20.92
2022-09-06T21:46:33.689Z,20.90
2022-09-06T21:49:02.583Z,20.87
2022-09-06T21:51:29.336Z,20.85
2022-09-06T21:53:56.772Z,20.81
2022-09-06T21:56:24.546Z,20.78
2022-09-06T21:58:53.116Z,20.76
2022-09-06T22:01:19.869Z,20.73
2022-09-06T22:03:46.904Z,20.73
2022-09-06T22:06:16.987Z,20.70
2022-09-06T22:08:43.763Z,20.69
2022-09-06T22:11:16.106Z,20.68
2022-09-06T22:13:43.572Z,20.68
2022-09-06T22:16:11.753Z,20.64
2022-09-06T22:18:38.759Z,20.54
2022-09-06T22:21:11.038Z,20.60
2022-09-06T22:23:39.427Z,20.60
2022-09-06T22:26:09.052Z,20.58
2022-09-06T22:28:36.417Z,20.55
2022-09-06T22:31:03.108Z,20.53
2022-09-06T22:33:30.260Z,20.51
2022-09-06T22:35:57.044Z,20.50
2022-09-06T22:38:23.669Z,20.48
2022-09-06T22:40:50.465Z,20.48
2022-09-06T22:43:17.024Z,20.44
2022-09-06T22:45:47.441Z,20.44
2022-09-06T22:48:16.917Z,20.41
2022-09-06T22:50:44.332Z,20.41
2022-09-06T22:53:11.872Z,20.38
2022-09-06T22:55:38.949Z,20.37
2022-09-06T22:58:05.953Z,20.35
2022-09-06T23:00:35.729Z,20.33
2022-09-06T23:03:02.541Z,20.30
2022-09-06T23:05:30.929Z,20.29
2022-09-06T23:07:57.637Z,20.25
2022-09-06T23:10:24.294Z,20.24
2022-09-06T23:12:53.948Z,20.23
2022-09-06T23:15:20.493Z,20.21
2022-09-06T23:17:47.076Z,20.20
2022-09-06T23:20:13.806Z,20.19
2022-09-06T23:22:40.949Z,20.19
2022-09-06T23:25:08.488Z,20.15
2022-09-06T23:27:35.108Z,20.14
2022-09-06T23:30:01.811Z,20.12
2022-09-06T23:32:28.379Z,20.10
2022-09-06T23:34:54.931Z,20.09
2022-09-06T23:37:21.989Z,20.07
2022-09-06T23:39:48.790Z,20.06
2022-09-06T23:42:15.380Z,20.05
2022-09-06T23:44:42.020Z,20.03
2022-09-06T23:47:08.615Z,20.03
2022-09-06T23:49:35.134Z,20.00
2022-09-06T23:52:01.907Z,19.99
2022-09-06T23:54:28.524Z,19.97
2022-09-06T23:56:55.099Z,19.94
2022-09-06T23:59:21.772Z,19.92
